createdAt,value
2016-10-18T00:00:48.814Z,0
2016-10-18T00:01:59.311Z,0
2016-10-18T00:03:09.809Z,0
2016-10-18T00:04:20.400Z,0
2016-10-18T00:05:30.904Z,0
2016-10-18T00:06:41.430Z,0
2016-10-18T00:07:51.892Z,0
2016-10-18T00:09:02.412Z,0
2016-10-18T00:10:13.194Z,0
2016-10-18T00:11:23.659Z,0
2016-10-18T00:12:34.176Z,0
2016-10-18T00:13:44.647Z,0
2016-10-18T00:14:55.129Z,0
2016-10-18T00:16:05.624Z,0
2016-10-18T00:17:16.171Z,0
2016-10-18T00:18:26.681Z,0
2016-10-18T00:19:37.183Z,0
2016-10-18T00:20:47.707Z,0
2016-10-18T00:21:58.283Z,0
2016-10-18T00:23:08.829Z,0
2016-10-18T00:24:19.317Z,0
2016-10-18T00:25:29.805Z,0
2016-10-18T00:26:40.316Z,0
2016-10-18T00:27:50.800Z,0
2016-10-18T00:29:01.293Z,0
2016-10-18T00:30:11.779Z,0
2016-10-18T00:31:22.270Z,0
2016-10-18T00:32:32.819Z,0
2016-10-18T00:33:43.562Z,0
2016-10-18T00:34:54.090Z,0
2016-10-18T00:36:04.575Z,0
2016-10-18T00:37:15.079Z,0
2016-10-18T00:38:25.585Z,0
2016-10-18T00:39:36.113Z,0
2016-10-18T00:40:46.624Z,0
2016-10-18T00:41:57.128Z,0
2016-10-18T00:43:07.646Z,0
2016-10-18T00:44:18.151Z,0
2016-10-18T00:45:28.787Z,0
2016-10-18T00:46:39.279Z,0
2016-10-18T00:47:49.815Z,0
2016-10-18T00:49:00.329Z,0
2016-10-18T00:50:10.836Z,0
2016-10-18T00:51:21.395Z,0
2016-10-18T00:52:31.917Z,0
2016-10-18T00:53:42.462Z,0
2016-10-18T00:54:52.969Z,0
2016-10-18T00:56:03.474Z,0
2016-10-18T00:57:13.958Z,0
2016-10-18T00:58:24.446Z,0
2016-10-18T00:59:35.009Z,0
2016-10-18T01:00:45.504Z,0
2016-10-18T01:01:56.007Z,0
2016-10-18T01:03:06.646Z,0
2016-10-18T01:04:17.165Z,0
2016-10-18T01:05:27.645Z,0
2016-10-18T01:06:38.129Z,0
2016-10-18T01:07:48.637Z,0
2016-10-18T01:08:59.262Z,0
2016-10-18T01:10:09.749Z,0
2016-10-18T01:11:20.232Z,0
2016-10-18T01:12:30.685Z,0
2016-10-18T01:13:41.184Z,0
2016-10-18T01:14:51.710Z,0
2016-10-18T01:16:02.206Z,0
2016-10-18T01:17:12.764Z,0
2016-10-18T01:18:23.231Z,0
2016-10-18T01:19:33.704Z,0
2016-10-18T01:20:44.289Z,0
2016-10-18T01:21:54.794Z,0
2016-10-18T01:23:05.248Z,0
2016-10-18T01:24:15.778Z,0
2016-10-18T01:25:26.303Z,0
2016-10-18T01:26:36.944Z,0
2016-10-18T01:27:47.402Z,0
2016-10-18T01:28:57.898Z,0
2016-10-18T01:30:08.385Z,0
2016-10-18T01:31:18.873Z,0
2016-10-18T01:32:29.385Z,0
2016-10-18T01:33:39.887Z,0
2016-10-18T01:34:50.361Z,0
2016-10-18T01:36:00.895Z,0
2016-10-18T01:37:11.388Z,0
2016-10-18T01:38:21.964Z,0
2016-10-18T01:39:32.511Z,0
2016-10-18T01:40:43.018Z,0
2016-10-18T01:41:53.522Z,0
2016-10-18T01:43:04.008Z,0
2016-10-18T01:44:14.491Z,0
2016-10-18T01:45:25.020Z,0
2016-10-18T01:46:35.476Z,0
2016-10-18T01:47:45.990Z,0
2016-10-18T01:48:56.499Z,0
2016-10-18T01:50:07.137Z,0
2016-10-18T01:51:17.645Z,0
2016-10-18T01:52:28.167Z,0
2016-10-18T01:53:38.629Z,0
2016-10-18T01:54:49.130Z,0
2016-10-18T01:55:59.718Z,0
2016-10-18T01:57:10.262Z,0
2016-10-18T01:58:21.231Z,0
2016-10-18T01:59:31.681Z,0
2016-10-18T02:00:42.185Z,0
2016-10-18T02:01:52.777Z,0
2016-10-18T02:03:03.287Z,0
2016-10-18T02:04:13.753Z,0
2016-10-18T02:05:24.311Z,0
2016-10-18T02:06:34.831Z,0
2016-10-18T02:07:45.415Z,0
2016-10-18T02:08:55.950Z,0
2016-10-18T02:10:06.423Z,0
2016-10-18T02:11:16.888Z,0
2016-10-18T02:12:27.366Z,0
2016-10-18T02:13:37.937Z,0
2016-10-18T02:14:48.429Z,0
2016-10-18T02:15:58.927Z,0
2016-10-18T02:17:09.390Z,0
2016-10-18T02:18:19.891Z,0
2016-10-18T02:19:30.408Z,0
2016-10-18T02:20:40.892Z,0
2016-10-18T02:21:51.391Z,0
2016-10-18T02:23:01.885Z,0
2016-10-18T02:24:12.381Z,0
2016-10-18T02:25:22.976Z,0
2016-10-18T02:26:33.982Z,0
2016-10-18T02:27:44.437Z,0
2016-10-18T02:28:54.908Z,0
2016-10-18T02:30:05.362Z,0
2016-10-18T02:31:15.824Z,0
2016-10-18T02:32:26.283Z,0
2016-10-18T02:33:36.737Z,0
2016-10-18T02:34:47.196Z,0
2016-10-18T02:35:57.653Z,0
2016-10-18T02:37:08.214Z,0
2016-10-18T02:38:18.672Z,0
2016-10-18T02:39:29.136Z,0
2016-10-18T02:40:39.598Z,0
2016-10-18T02:41:50.057Z,0
2016-10-18T02:43:00.508Z,0
2016-10-18T02:44:10.964Z,0
2016-10-18T02:45:21.424Z,0
2016-10-18T02:46:31.872Z,0
2016-10-18T02:47:42.369Z,0
2016-10-18T02:48:52.919Z,0
2016-10-18T02:50:03.393Z,0
2016-10-18T02:51:13.845Z,0
2016-10-18T02:52:24.304Z,0
2016-10-18T02:53:34.758Z,0
2016-10-18T02:54:45.328Z,0
2016-10-18T02:55:55.782Z,0
2016-10-18T02:57:06.240Z,0
2016-10-18T02:58:16.692Z,0
2016-10-18T02:59:27.153Z,0
2016-10-18T03:00:37.638Z,0
2016-10-18T03:01:48.097Z,0
2016-10-18T03:02:58.589Z,0
2016-10-18T03:04:09.045Z,0
2016-10-18T03:05:19.502Z,0
2016-10-18T03:06:30.065Z,0
2016-10-18T03:07:40.516Z,0
2016-10-18T03:08:50.965Z,0
2016-10-18T03:10:01.425Z,0
2016-10-18T03:11:11.882Z,0
2016-10-18T03:12:22.443Z,0
2016-10-18T03:13:32.901Z,0
2016-10-18T03:14:43.854Z,0
2016-10-18T03:15:54.326Z,0
2016-10-18T03:17:04.825Z,0
2016-10-18T03:18:15.319Z,0
2016-10-18T03:19:25.788Z,0
2016-10-18T03:20:36.236Z,0
2016-10-18T03:21:46.702Z,0
2016-10-18T03:22:57.159Z,0
2016-10-18T03:24:07.724Z,0
2016-10-18T03:25:18.186Z,0
2016-10-18T03:26:28.636Z,0
2016-10-18T03:27:39.091Z,0
2016-10-18T03:28:49.551Z,0
2016-10-18T03:30:00.113Z,0
2016-10-18T03:31:10.561Z,0
2016-10-18T03:32:21.012Z,0
2016-10-18T03:33:31.480Z,0
2016-10-18T03:34:41.940Z,0
2016-10-18T03:35:52.446Z,0
2016-10-18T03:37:02.975Z,0
2016-10-18T03:38:13.491Z,0
2016-10-18T03:39:23.987Z,0
2016-10-18T03:40:34.507Z,0
2016-10-18T03:41:45.155Z,0
2016-10-18T03:42:55.660Z,0
2016-10-18T03:44:06.126Z,0
2016-10-18T03:45:16.647Z,0
2016-10-18T03:46:27.133Z,0
2016-10-18T03:47:37.708Z,0
2016-10-18T03:48:48.313Z,0
2016-10-18T03:49:58.812Z,0
2016-10-18T03:51:09.296Z,0
2016-10-18T03:52:19.787Z,0
2016-10-18T03:53:30.304Z,0
2016-10-18T03:54:40.807Z,0
2016-10-18T03:55:51.273Z,0
2016-10-18T03:57:01.798Z,0
2016-10-18T03:58:12.335Z,0
2016-10-18T03:59:22.837Z,0
2016-10-18T04:00:33.312Z,0
2016-10-18T04:01:43.820Z,0
2016-10-18T04:02:54.268Z,0
2016-10-18T04:04:04.754Z,0
2016-10-18T04:05:15.402Z,0
2016-10-18T04:06:25.905Z,0
2016-10-18T04:07:36.422Z,0
2016-10-18T04:08:46.886Z,0
2016-10-18T04:09:57.416Z,0
2016-10-18T04:11:08.069Z,0
2016-10-18T04:12:18.612Z,0
2016-10-18T04:13:29.237Z,0
2016-10-18T04:14:39.779Z,0
2016-10-18T04:15:50.305Z,0
2016-10-18T04:17:00.859Z,0
2016-10-18T04:18:11.375Z,0
2016-10-18T04:19:21.886Z,0
2016-10-18T04:20:32.412Z,0
2016-10-18T04:21:42.951Z,0
2016-10-18T04:22:53.452Z,0
2016-10-18T04:24:04.032Z,0
2016-10-18T04:25:14.544Z,0
2016-10-18T04:26:25.108Z,0
2016-10-18T04:27:35.626Z,0
2016-10-18T04:28:46.306Z,0
2016-10-18T04:29:56.873Z,0
2016-10-18T04:31:07.417Z,0
2016-10-18T04:32:17.957Z,0
2016-10-18T04:33:28.469Z,0
2016-10-18T04:34:39.080Z,0
2016-10-18T04:35:49.682Z,0
2016-10-18T04:37:00.151Z,0
2016-10-18T04:38:10.670Z,0
2016-10-18T04:39:21.232Z,0
2016-10-18T04:40:31.771Z,0
2016-10-18T04:41:42.305Z,0
2016-10-18T04:42:52.887Z,0
2016-10-18T04:44:03.428Z,0
2016-10-18T04:45:13.955Z,0
2016-10-18T04:46:24.495Z,0
2016-10-18T04:47:34.988Z,0
2016-10-18T04:48:45.487Z,0
2016-10-18T04:49:56.018Z,0
2016-10-18T04:51:06.595Z,0
2016-10-18T04:52:17.159Z,0
2016-10-18T04:53:27.640Z,0
2016-10-18T04:54:38.159Z,0
2016-10-18T04:55:49.135Z,0
2016-10-18T04:56:59.614Z,0
2016-10-18T04:58:10.223Z,0
2016-10-18T04:59:20.705Z,0
2016-10-18T05:00:31.262Z,0
2016-10-18T05:01:41.769Z,0
2016-10-18T05:02:52.276Z,0
2016-10-18T05:04:02.727Z,0
2016-10-18T05:05:13.218Z,0
2016-10-18T05:06:23.683Z,0
2016-10-18T05:07:34.192Z,0
2016-10-18T05:08:44.670Z,0
2016-10-18T05:09:55.665Z,0
2016-10-18T05:11:06.163Z,0
2016-10-18T05:12:16.629Z,0
2016-10-18T05:13:27.107Z,0
2016-10-18T05:14:37.659Z,0
2016-10-18T05:15:48.295Z,0
2016-10-18T05:16:58.781Z,0
2016-10-18T05:18:09.314Z,0
2016-10-18T05:19:19.831Z,0
2016-10-18T05:20:30.297Z,0
2016-10-18T05:21:40.856Z,0
2016-10-18T05:22:51.311Z,0
2016-10-18T05:24:01.768Z,0
2016-10-18T05:25:12.234Z,0
2016-10-18T05:26:22.682Z,0
2016-10-18T05:27:33.172Z,0
2016-10-18T05:28:43.624Z,0
2016-10-18T05:29:54.086Z,0
2016-10-18T05:31:04.582Z,0
2016-10-18T05:32:15.033Z,0
2016-10-18T05:33:25.482Z,0
2016-10-18T05:34:35.926Z,0
2016-10-18T05:35:46.392Z,0
2016-10-18T05:36:57.328Z,0
2016-10-18T05:38:07.814Z,0
2016-10-18T05:39:18.367Z,0
2016-10-18T05:40:28.816Z,0
2016-10-18T05:41:39.278Z,0
2016-10-18T05:42:49.735Z,0
2016-10-18T05:44:00.196Z,0
2016-10-18T05:45:10.756Z,0
2016-10-18T05:46:21.216Z,0
2016-10-18T05:47:31.681Z,0
2016-10-18T05:48:42.651Z,0
2016-10-18T05:49:53.107Z,0
2016-10-18T05:51:03.561Z,0
2016-10-18T05:52:14.014Z,0
2016-10-18T05:53:24.458Z,0
2016-10-18T05:54:34.911Z,0
2016-10-18T05:55:45.370Z,0
2016-10-18T05:56:55.902Z,0
2016-10-18T05:58:06.417Z,0
2016-10-18T05:59:16.978Z,0
2016-10-18T06:00:27.516Z,0
2016-10-18T06:01:38.084Z,0
2016-10-18T06:02:48.703Z,0
2016-10-18T06:03:59.261Z,0
2016-10-18T06:05:09.956Z,0
2016-10-18T06:06:20.462Z,0
2016-10-18T06:07:30.969Z,0
2016-10-18T06:08:41.653Z,0
2016-10-18T06:09:52.231Z,0
2016-10-18T06:11:02.789Z,0
2016-10-18T06:12:13.303Z,0
2016-10-18T06:13:23.811Z,0
2016-10-18T06:14:34.418Z,0
2016-10-18T06:15:44.979Z,0
2016-10-18T06:16:55.466Z,0
2016-10-18T06:18:05.984Z,0
2016-10-18T06:19:16.539Z,0
2016-10-18T06:20:27.092Z,0
2016-10-18T06:21:37.659Z,0
2016-10-18T06:22:48.214Z,0
2016-10-18T06:23:58.693Z,0
2016-10-18T06:25:09.254Z,0
2016-10-18T06:26:19.912Z,0
2016-10-18T06:27:30.417Z,0
2016-10-18T06:28:40.991Z,0
2016-10-18T06:29:51.510Z,0
2016-10-18T06:31:02.036Z,0
2016-10-18T06:32:12.659Z,0
2016-10-18T06:33:23.208Z,0
2016-10-18T06:34:33.672Z,0
2016-10-18T06:35:44.162Z,0
2016-10-18T06:36:54.655Z,0
2016-10-18T06:38:05.167Z,0
2016-10-18T06:39:15.717Z,0
2016-10-18T06:40:26.209Z,0
2016-10-18T06:41:36.674Z,0
2016-10-18T06:42:47.149Z,0
2016-10-18T06:43:57.600Z,0
2016-10-18T06:45:08.098Z,0
2016-10-18T06:46:18.606Z,0
2016-10-18T06:47:29.124Z,0
2016-10-18T06:48:39.662Z,0
2016-10-18T06:49:50.282Z,0
2016-10-18T06:51:00.738Z,0
2016-10-18T06:52:11.283Z,0
2016-10-18T06:53:21.733Z,0
2016-10-18T06:54:32.198Z,0
2016-10-18T06:55:42.706Z,0
2016-10-18T06:56:53.201Z,0
2016-10-18T06:58:03.776Z,0
2016-10-18T06:59:14.318Z,0
2016-10-18T07:00:24.795Z,0
2016-10-18T07:01:35.276Z,0
2016-10-18T07:02:45.793Z,0
2016-10-18T07:03:56.334Z,0
2016-10-18T07:05:06.836Z,0
2016-10-18T07:06:17.302Z,0
2016-10-18T07:07:27.858Z,0
2016-10-18T07:08:38.316Z,0
2016-10-18T07:09:48.769Z,0
2016-10-18T07:10:59.259Z,0
2016-10-18T07:12:09.722Z,0
2016-10-18T07:13:20.285Z,0
2016-10-18T07:14:30.781Z,0
2016-10-18T07:15:41.236Z,0
2016-10-18T07:16:51.703Z,0
2016-10-18T07:18:02.167Z,0
2016-10-18T07:19:12.628Z,0
2016-10-18T07:20:23.080Z,0
2016-10-18T07:21:33.531Z,0
2016-10-18T07:22:43.998Z,0
2016-10-18T07:23:54.497Z,0
2016-10-18T07:25:05.058Z,0
2016-10-18T07:26:15.558Z,0
2016-10-18T07:27:26.004Z,0
2016-10-18T07:28:36.458Z,0
2016-10-18T07:29:46.964Z,0
2016-10-18T07:30:57.423Z,0
2016-10-18T07:32:07.877Z,0
2016-10-18T07:33:18.354Z,0
2016-10-18T07:34:28.815Z,0
2016-10-18T07:35:39.263Z,0
2016-10-18T07:36:49.816Z,0
2016-10-18T07:38:00.280Z,0
2016-10-18T07:39:10.755Z,0
2016-10-18T07:40:21.266Z,0
2016-10-18T07:41:31.833Z,0
2016-10-18T07:42:42.851Z,0
2016-10-18T07:43:53.312Z,0
2016-10-18T07:45:03.863Z,0
2016-10-18T07:46:14.373Z,0
2016-10-18T07:47:24.859Z,0
2016-10-18T07:48:35.473Z,0
2016-10-18T07:49:45.965Z,0
2016-10-18T07:50:56.502Z,0
2016-10-18T07:52:07.006Z,0
2016-10-18T07:53:17.529Z,0
2016-10-18T07:54:27.987Z,0
2016-10-18T07:55:38.503Z,0
2016-10-18T07:56:49.070Z,0
2016-10-18T07:57:59.561Z,0
2016-10-18T07:59:10.106Z,0
2016-10-18T08:00:20.710Z,0
2016-10-18T08:01:31.189Z,0
2016-10-18T08:02:41.674Z,0
2016-10-18T08:03:52.159Z,0
2016-10-18T08:05:02.618Z,0
2016-10-18T08:06:13.216Z,0
2016-10-18T08:07:23.714Z,0
2016-10-18T08:08:34.227Z,0
2016-10-18T08:09:44.685Z,0
2016-10-18T08:10:55.170Z,0
2016-10-18T08:12:05.720Z,0
2016-10-18T08:13:16.291Z,0
2016-10-18T08:14:26.803Z,0
2016-10-18T08:15:37.331Z,0
2016-10-18T08:16:47.850Z,0
2016-10-18T08:17:58.406Z,0
2016-10-18T08:19:08.927Z,0
2016-10-18T08:20:19.472Z,0
2016-10-18T08:21:30.064Z,0
2016-10-18T08:22:40.619Z,0
2016-10-18T08:23:51.275Z,0
2016-10-18T08:25:01.841Z,0
2016-10-18T08:26:12.363Z,5
2016-10-18T08:27:22.893Z,5
2016-10-18T08:28:33.457Z,5
2016-10-18T08:29:44.108Z,5
2016-10-18T08:30:54.672Z,5
2016-10-18T08:32:05.201Z,5
2016-10-18T08:33:15.735Z,10
2016-10-18T08:34:26.300Z,10
2016-10-18T08:35:36.902Z,10
2016-10-18T08:36:47.396Z,15
2016-10-18T08:37:58.430Z,15
2016-10-18T08:39:08.951Z,20
2016-10-18T08:40:19.514Z,20
2016-10-18T08:41:30.184Z,25
2016-10-18T08:42:40.741Z,30
2016-10-18T08:43:51.290Z,35
2016-10-18T08:45:01.921Z,35
2016-10-18T08:46:12.424Z,40
2016-10-18T08:48:36.742Z,50
2016-10-18T08:49:47.243Z,55
2016-10-18T08:50:57.799Z,60
2016-10-18T08:52:08.355Z,65
2016-10-18T08:53:18.976Z,65
2016-10-18T08:54:29.537Z,70
2016-10-18T08:55:40.097Z,75
2016-10-18T08:56:50.703Z,80
2016-10-18T08:58:01.218Z,85
2016-10-18T08:59:12.262Z,90
2016-10-18T09:00:22.816Z,95
2016-10-18T09:01:33.373Z,95
2016-10-18T09:02:43.943Z,100
2016-10-18T09:03:54.450Z,105
2016-10-18T09:05:05.004Z,110
2016-10-18T09:06:15.538Z,115
2016-10-18T09:07:26.093Z,115
2016-10-18T09:08:36.617Z,120
2016-10-18T09:09:47.159Z,125
2016-10-18T09:10:57.810Z,130
2016-10-18T09:12:08.372Z,130
2016-10-18T09:13:18.962Z,135
2016-10-18T09:14:29.482Z,140
2016-10-18T09:15:40.041Z,140
2016-10-18T09:16:50.670Z,140
2016-10-18T09:18:01.183Z,145
2016-10-18T09:19:11.721Z,150
2016-10-18T09:20:22.254Z,155
2016-10-18T09:21:32.776Z,160
2016-10-18T09:22:43.402Z,165
2016-10-18T09:23:53.928Z,170
2016-10-18T09:25:04.468Z,175
2016-10-18T09:26:15.007Z,185
2016-10-18T09:27:25.558Z,190
2016-10-18T09:28:36.204Z,200
2016-10-18T09:29:46.772Z,205
2016-10-18T09:30:57.308Z,210
2016-10-18T09:32:07.840Z,220
2016-10-18T09:33:18.435Z,235
2016-10-18T09:34:28.968Z,240
2016-10-18T09:35:39.507Z,255
2016-10-18T09:36:50.045Z,260
2016-10-18T09:38:00.545Z,280
2016-10-18T09:39:11.051Z,300
2016-10-18T09:40:21.567Z,330
2016-10-18T09:41:32.066Z,360
2016-10-18T09:42:42.610Z,360
2016-10-18T09:43:53.170Z,355
2016-10-18T09:45:03.684Z,375
2016-10-18T09:46:14.314Z,380
2016-10-18T09:47:24.887Z,380
2016-10-18T09:48:35.442Z,395
2016-10-18T09:49:45.962Z,425
2016-10-18T09:50:56.502Z,480
2016-10-18T09:52:07.095Z,530
2016-10-18T09:53:17.680Z,515
2016-10-18T09:54:28.697Z,510
2016-10-18T09:55:39.279Z,545
2016-10-18T09:56:49.824Z,600
2016-10-18T09:58:00.459Z,605
2016-10-18T09:59:11.044Z,620
2016-10-18T10:00:21.553Z,670
2016-10-18T10:01:32.109Z,660
2016-10-18T10:02:42.657Z,660
2016-10-18T10:03:53.185Z,645
2016-10-18T10:05:03.779Z,635
2016-10-18T10:06:14.285Z,735
2016-10-18T10:07:24.861Z,800
2016-10-18T10:08:35.393Z,745
2016-10-18T10:09:46.079Z,745
2016-10-18T10:10:56.665Z,820
2016-10-18T10:12:07.207Z,885
2016-10-18T10:13:17.808Z,895
2016-10-18T10:14:28.415Z,860
2016-10-18T10:15:38.968Z,790
2016-10-18T10:16:49.535Z,695
2016-10-18T10:18:00.085Z,595
2016-10-18T10:19:10.643Z,600
2016-10-18T10:20:21.203Z,635
2016-10-18T10:21:31.760Z,625
2016-10-18T10:22:42.307Z,710
2016-10-18T10:23:52.890Z,730
2016-10-18T10:25:03.465Z,695
2016-10-18T10:26:14.081Z,725
2016-10-18T10:27:24.756Z,800
2016-10-18T10:28:35.331Z,735
2016-10-18T10:29:45.855Z,710
2016-10-18T10:30:56.444Z,625
2016-10-18T10:32:06.954Z,555
2016-10-18T10:33:17.580Z,530
2016-10-18T10:34:28.133Z,520
2016-10-18T10:35:38.700Z,500
2016-10-18T10:36:49.223Z,485
2016-10-18T10:37:59.785Z,495
2016-10-18T10:39:10.406Z,495
2016-10-18T10:40:20.924Z,505
2016-10-18T10:41:31.430Z,525
2016-10-18T10:42:41.925Z,545
2016-10-18T10:43:52.501Z,545
2016-10-18T10:45:03.050Z,555
2016-10-18T10:46:13.593Z,585
2016-10-18T10:47:24.140Z,615
2016-10-18T10:48:34.716Z,690
2016-10-18T10:49:45.278Z,705
2016-10-18T10:50:55.952Z,575
2016-10-18T10:52:06.603Z,570
2016-10-18T10:53:17.181Z,550
2016-10-18T10:54:27.775Z,530
2016-10-18T10:55:38.361Z,535
2016-10-18T10:56:48.942Z,540
2016-10-18T10:57:59.537Z,655
2016-10-18T10:59:10.420Z,930
2016-10-18T11:00:21.003Z,745
2016-10-18T11:01:31.584Z,1110
2016-10-18T11:02:42.263Z,1310
2016-10-18T11:03:52.843Z,1350
2016-10-18T11:05:03.425Z,1420
2016-10-18T11:06:14.014Z,1415
2016-10-18T11:07:24.609Z,1380
2016-10-18T11:08:35.292Z,1040
2016-10-18T11:09:45.882Z,1200
2016-10-18T11:10:56.465Z,1245
2016-10-18T11:12:07.065Z,1320
2016-10-18T11:13:17.646Z,1250
2016-10-18T11:14:28.333Z,1150
2016-10-18T11:15:38.931Z,1120
2016-10-18T11:16:49.548Z,1085
2016-10-18T11:18:00.177Z,1275
2016-10-18T11:19:10.798Z,1285
2016-10-18T11:20:21.380Z,1230
2016-10-18T11:21:31.954Z,1205
2016-10-18T11:22:42.539Z,1210
2016-10-18T11:23:53.126Z,1180
2016-10-18T11:25:04.204Z,1205
2016-10-18T11:26:14.904Z,1205
2016-10-18T11:27:25.502Z,1310
2016-10-18T11:28:36.092Z,1450
2016-10-18T11:29:46.674Z,1575
2016-10-18T11:30:57.263Z,1675
2016-10-18T11:32:08.356Z,1690
2016-10-18T11:33:18.978Z,1710
2016-10-18T11:34:29.653Z,1780
2016-10-18T11:35:40.243Z,1755
2016-10-18T11:36:50.840Z,1695
2016-10-18T11:38:01.538Z,1795
2016-10-18T11:39:12.120Z,1775
2016-10-18T11:40:22.708Z,1835
2016-10-18T11:41:33.351Z,1880
2016-10-18T11:42:44.436Z,1765
2016-10-18T11:43:55.058Z,1835
2016-10-18T11:45:05.652Z,1850
2016-10-18T11:46:16.236Z,1850
2016-10-18T11:47:26.838Z,1830
2016-10-18T11:48:37.434Z,1775
2016-10-18T11:49:48.132Z,1820
2016-10-18T11:50:58.749Z,1870
2016-10-18T11:52:09.337Z,1820
2016-10-18T11:53:19.925Z,1925
2016-10-18T11:54:30.515Z,1875
2016-10-18T11:55:41.111Z,1900
2016-10-18T11:56:51.741Z,1930
2016-10-18T11:58:02.331Z,1925
2016-10-18T11:59:12.956Z,1920
2016-10-18T12:00:23.558Z,1905
2016-10-18T12:01:34.298Z,1880
2016-10-18T12:02:44.901Z,1845
2016-10-18T12:03:55.496Z,1880
2016-10-18T12:05:06.093Z,1625
2016-10-18T12:06:16.686Z,1590
2016-10-18T12:07:27.858Z,1520
2016-10-18T12:08:38.475Z,1460
2016-10-18T12:09:49.073Z,1645
2016-10-18T12:10:59.668Z,1725
2016-10-18T12:12:10.266Z,1865
2016-10-18T12:13:20.866Z,1790
2016-10-18T12:14:31.457Z,1730
2016-10-18T12:15:42.052Z,1985
2016-10-18T12:16:52.659Z,1895
2016-10-18T12:18:03.275Z,1810
2016-10-18T12:19:13.926Z,1970
2016-10-18T12:20:24.504Z,1985
2016-10-18T12:21:35.057Z,1955
2016-10-18T12:22:45.647Z,2135
2016-10-18T12:23:56.199Z,2115
2016-10-18T12:25:06.875Z,1975
2016-10-18T12:26:17.424Z,2100
2016-10-18T12:27:28.003Z,2090
2016-10-18T12:28:38.576Z,2135
2016-10-18T12:29:49.091Z,1985
2016-10-18T12:30:59.648Z,2000
2016-10-18T12:32:10.757Z,2015
2016-10-18T12:33:21.272Z,1965
2016-10-18T12:34:31.847Z,1880
2016-10-18T12:35:42.399Z,1875
2016-10-18T12:36:53.036Z,1965
2016-10-18T12:38:03.620Z,1925
2016-10-18T12:39:14.216Z,1795
2016-10-18T12:40:24.755Z,1445
2016-10-18T12:41:35.312Z,1395
2016-10-18T12:42:45.894Z,1510
2016-10-18T12:43:56.510Z,1370
2016-10-18T12:45:07.135Z,1230
2016-10-18T12:46:17.715Z,1180
2016-10-18T12:47:28.288Z,1810
2016-10-18T12:48:38.988Z,2010
2016-10-18T12:49:49.520Z,1915
2016-10-18T12:51:00.105Z,2025
2016-10-18T12:52:10.670Z,2110
2016-10-18T12:53:21.244Z,1915
2016-10-18T12:54:31.882Z,1980
2016-10-18T12:55:42.479Z,2040
2016-10-18T12:56:53.070Z,1980
2016-10-18T12:58:03.675Z,2120
2016-10-18T12:59:14.306Z,2285
2016-10-18T13:00:24.898Z,2395
2016-10-18T13:01:35.495Z,2360
2016-10-18T13:02:46.094Z,2355
2016-10-18T13:03:56.702Z,2300
2016-10-18T13:05:07.320Z,2275
2016-10-18T13:06:18.014Z,2230
2016-10-18T13:07:28.615Z,2110
2016-10-18T13:08:39.310Z,2095
2016-10-18T13:09:50.413Z,2250
2016-10-18T13:11:01.002Z,2225
2016-10-18T13:12:11.723Z,2200
2016-10-18T13:13:22.330Z,2140
2016-10-18T13:14:32.966Z,2040
2016-10-18T13:15:44.057Z,2125
2016-10-18T13:16:54.656Z,2140
2016-10-18T13:18:05.261Z,2070
2016-10-18T13:19:15.861Z,2155
2016-10-18T13:20:26.461Z,2205
2016-10-18T13:21:37.662Z,2225
2016-10-18T13:22:48.260Z,2255
2016-10-18T13:23:58.882Z,2315
2016-10-18T13:25:09.989Z,2360
2016-10-18T13:26:20.589Z,2465
2016-10-18T13:27:31.211Z,2410
2016-10-18T13:28:41.807Z,2395
2016-10-18T13:29:52.441Z,2415
2016-10-18T13:31:03.075Z,2460
2016-10-18T13:32:13.677Z,2365
2016-10-18T13:33:24.310Z,2560
2016-10-18T13:34:34.915Z,2145
2016-10-18T13:35:45.632Z,2375
2016-10-18T13:36:56.231Z,1445
2016-10-18T13:38:06.816Z,2345
2016-10-18T13:39:17.439Z,2260
2016-10-18T13:40:28.033Z,2270
2016-10-18T13:41:38.632Z,2345
2016-10-18T13:42:49.235Z,2280
2016-10-18T13:43:59.827Z,2305
2016-10-18T13:45:10.425Z,2305
2016-10-18T13:46:21.011Z,2420
2016-10-18T13:47:31.731Z,2415
2016-10-18T13:48:42.321Z,2355
2016-10-18T13:49:53.301Z,2370
2016-10-18T13:51:03.901Z,2345
2016-10-18T13:52:14.518Z,2480
2016-10-18T13:53:25.211Z,2460
2016-10-18T13:54:35.822Z,2285
2016-10-18T13:55:46.442Z,2390
2016-10-18T13:56:57.051Z,2195
2016-10-18T13:58:07.657Z,2230
2016-10-18T13:59:18.253Z,2480
2016-10-18T14:00:28.852Z,2300
2016-10-18T14:01:39.446Z,2440
2016-10-18T14:02:50.038Z,2155
2016-10-18T14:04:00.726Z,2120
2016-10-18T14:05:11.325Z,2160
2016-10-18T14:06:21.934Z,2425
2016-10-18T14:07:32.570Z,2520
2016-10-18T14:08:43.166Z,2390
2016-10-18T14:09:53.768Z,2390
2016-10-18T14:11:04.513Z,2410
2016-10-18T14:12:15.107Z,2545
2016-10-18T14:13:25.725Z,2500
2016-10-18T14:14:36.371Z,2370
2016-10-18T14:15:46.965Z,2440
2016-10-18T14:16:58.054Z,2010
2016-10-18T14:18:08.653Z,2195
2016-10-18T14:19:19.253Z,1960
2016-10-18T14:20:29.842Z,1895
2016-10-18T14:21:40.441Z,2010
2016-10-18T14:22:51.132Z,2005
2016-10-18T14:24:01.737Z,2120
2016-10-18T14:25:12.338Z,2125
2016-10-18T14:26:22.929Z,1915
2016-10-18T14:27:33.554Z,1750
2016-10-18T14:28:44.197Z,2300
2016-10-18T14:29:54.795Z,2150
2016-10-18T14:31:05.472Z,2365
2016-10-18T14:32:16.110Z,2125
2016-10-18T14:33:26.700Z,2245
2016-10-18T14:34:37.389Z,1900
2016-10-18T14:35:48.001Z,2195
2016-10-18T14:36:58.592Z,2050
2016-10-18T14:38:09.198Z,2250
2016-10-18T14:39:19.809Z,2285
2016-10-18T14:40:31.087Z,2205
2016-10-18T14:41:41.679Z,2080
2016-10-18T14:42:52.259Z,2020
2016-10-18T14:44:02.860Z,2255
2016-10-18T14:45:13.456Z,2425
2016-10-18T14:46:24.062Z,2390
2016-10-18T14:47:34.697Z,2360
2016-10-18T14:48:45.290Z,2390
2016-10-18T14:49:55.885Z,2300
2016-10-18T14:51:06.487Z,2365
2016-10-18T14:52:17.680Z,2450
2016-10-18T14:53:28.311Z,2395
2016-10-18T14:54:38.941Z,2315
2016-10-18T14:55:49.547Z,2280
2016-10-18T14:57:00.633Z,2370
2016-10-18T14:58:11.331Z,2305
2016-10-18T14:59:21.917Z,2270
2016-10-18T15:00:33.018Z,2330
2016-10-18T15:01:43.638Z,2290
2016-10-18T15:02:54.253Z,2220
2016-10-18T15:04:04.954Z,2305
2016-10-18T15:05:15.558Z,2260
2016-10-18T15:06:26.650Z,2170
2016-10-18T15:07:37.260Z,2250
2016-10-18T15:08:47.857Z,2120
2016-10-18T15:09:58.587Z,2160
2016-10-18T15:11:09.191Z,2255
2016-10-18T15:12:19.790Z,2275
2016-10-18T15:13:30.469Z,2360
2016-10-18T15:14:41.078Z,2225
2016-10-18T15:15:52.270Z,2295
2016-10-18T15:17:02.895Z,2240
2016-10-18T15:18:14.487Z,2225
2016-10-18T15:19:25.076Z,2255
2016-10-18T15:20:35.681Z,2305
2016-10-18T15:21:46.786Z,2170
2016-10-18T15:22:57.415Z,2055
2016-10-18T15:24:08.016Z,2175
2016-10-18T15:25:18.614Z,2000
2016-10-18T15:26:29.698Z,1905
2016-10-18T15:27:40.436Z,1855
2016-10-18T15:28:51.037Z,1790
2016-10-18T15:30:01.649Z,1860
2016-10-18T15:31:12.746Z,1990
2016-10-18T15:32:23.376Z,2035
2016-10-18T15:33:34.066Z,1950
2016-10-18T15:34:44.653Z,1950
2016-10-18T15:35:55.264Z,1870
2016-10-18T15:37:05.862Z,1940
2016-10-18T15:38:16.461Z,2030
2016-10-18T15:39:27.060Z,1935
2016-10-18T15:40:37.656Z,1770
2016-10-18T15:41:48.260Z,1830
2016-10-18T15:42:58.857Z,1920
2016-10-18T15:44:09.501Z,1875
2016-10-18T15:45:20.190Z,1755
2016-10-18T15:46:30.801Z,1755
2016-10-18T15:47:41.393Z,1135
2016-10-18T15:48:51.987Z,1840
2016-10-18T15:50:03.070Z,825
2016-10-18T15:51:14.171Z,610
2016-10-18T15:52:24.770Z,580
2016-10-18T15:53:35.387Z,560
2016-10-18T15:54:45.987Z,530
2016-10-18T15:55:56.581Z,515
2016-10-18T15:57:07.307Z,510
2016-10-18T15:58:17.895Z,485
2016-10-18T15:59:28.495Z,470
2016-10-18T16:00:39.082Z,465
2016-10-18T16:01:49.676Z,455
2016-10-18T16:03:00.441Z,460
2016-10-18T16:04:11.042Z,505
2016-10-18T16:05:21.641Z,500
2016-10-18T16:06:32.241Z,495
2016-10-18T16:07:42.857Z,560
2016-10-18T16:08:53.447Z,1820
2016-10-18T16:10:04.044Z,590
2016-10-18T16:11:14.644Z,520
2016-10-18T16:12:25.229Z,480
2016-10-18T16:13:35.860Z,455
2016-10-18T16:14:46.495Z,460
2016-10-18T16:15:57.088Z,490
2016-10-18T16:17:07.659Z,545
2016-10-18T16:18:18.232Z,740
2016-10-18T16:19:28.807Z,530
2016-10-18T16:20:39.475Z,535
2016-10-18T16:21:50.045Z,560
2016-10-18T16:23:00.562Z,595
2016-10-18T16:24:11.109Z,1205
2016-10-18T16:25:21.657Z,650
2016-10-18T16:26:32.263Z,775
2016-10-18T16:27:42.814Z,1045
2016-10-18T16:28:53.332Z,1140
2016-10-18T16:30:03.893Z,420
2016-10-18T16:31:14.494Z,410
2016-10-18T16:32:25.138Z,405
2016-10-18T16:33:35.727Z,380
2016-10-18T16:34:46.297Z,360
2016-10-18T16:35:56.816Z,340
2016-10-18T16:37:07.383Z,330
2016-10-18T16:38:18.061Z,300
2016-10-18T16:39:28.633Z,265